Accueil
METAR-TAF:

METAR-TAF

Aéroports :

Point Lay, Alaska, États-Unis

latitude: 69-43N, longitude: 163-00W, altitude: 8 m

Observation

Le bulletin a été fait il y a 2 heures et 28 minutes, à 21:56 UTC
Vent calme
Température -23°C
Humidité 91%
Pression 1008 hPa
Visibilité: 16.1 km
Ciel clair

METAR: PPIZ 222156Z AUTO 00000KT 10SM CLR M23/M24 A2978 RMK AO2 SLP089 T12281244 FZRANO

Heure: 15:24 (00:24 UTC)


TAF: absent

Observations et prévisions météorologiques de plus de 4000 aéroports (messages METAR et TAF).

Les stations disponibles sont représentées par des disques jaunes et rouges sur la carte.

Passer la souris dessus pour voir le nom de la station.

Cliquer dessus pour voir les observations et prévisions météorologiques.

Pour changer de carte: cliquez sur les boutons verts avec une croix noire pour zoomer, sur le bouton vert avec un tiret pour effectuer un zoom arrière, ou sur les flèches vertes pour les cartes adjacentes.


METAR-TAF: